Time;durP1;ratioP1;P1;durP2;ratioP2;P2;SDS_P1;SDS_P2;PMS_P1;PMS_P2;Temp;Humidity;BMP_temperature;BMP_pressure;BME280_temperature;BME280_humidity;BME280_pressure;Samples;Min_cycle;Max_cycle;Signal;HPM_P1;HPM_P2
2023/05/13 00:02:16;;;;;;;5.60;4.22;;;;;;;14.26;100.00;100843.69;4968948;28;20051;-84
2023/05/13 00:04:45;;;;;;;5.82;4.07;;;;;;;14.13;100.00;100842.50;4968827;28;20409;-84
2023/05/13 00:07:13;;;;;;;4.25;3.85;;;;;;;14.10;100.00;100843.94;4968629;28;20077;-84
2023/05/13 00:09:43;;;;;;;6.07;4.40;;;;;;;14.14;100.00;100843.31;5049981;28;20047;-84
2023/05/13 00:12:11;;;;;;;5.60;4.75;;;;;;;14.10;100.00;100840.34;4953206;28;20062;-84
2023/05/13 00:14:41;;;;;;;6.10;4.60;;;;;;;14.11;100.00;100847.50;4965742;28;20054;-84
2023/05/13 00:17:09;;;;;;;6.07;4.63;;;;;;;14.16;100.00;100852.94;5056446;28;20061;-83
2023/05/13 00:19:38;;;;;;;5.85;4.32;;;;;;;14.07;100.00;100854.69;4969033;28;20055;-83
2023/05/13 00:22:06;;;;;;;6.05;4.65;;;;;;;14.09;100.00;100856.03;4971546;28;20061;-83
2023/05/13 00:24:35;;;;;;;7.65;4.63;;;;;;;13.98;100.00;100855.38;4987639;28;20051;-83
2023/05/13 00:27:03;;;;;;;5.90;4.57;;;;;;;13.95;100.00;100844.16;4988513;28;20471;-83
2023/05/13 00:29:31;;;;;;;5.75;5.15;;;;;;;14.03;100.00;100837.16;4988423;28;20054;-83
2023/05/13 00:31:59;;;;;;;5.15;4.55;;;;;;;13.98;100.00;100838.88;5053266;28;20043;-83
2023/05/13 00:34:28;;;;;;;6.20;4.95;;;;;;;13.87;100.00;100836.56;5052868;28;20046;-83
2023/05/13 00:36:57;;;;;;;6.53;4.28;;;;;;;13.80;100.00;100840.50;4991416;28;20493;-84
2023/05/13 00:39:26;;;;;;;5.63;5.00;;;;;;;13.79;100.00;100840.78;5081960;28;20066;-83
2023/05/13 00:41:54;;;;;;;6.65;5.47;;;;;;;13.76;100.00;100841.38;5073265;28;20066;-83
2023/05/13 00:44:22;;;;;;;8.25;4.97;;;;;;;13.72;100.00;100851.34;4981686;28;20066;-84
2023/05/13 00:46:51;;;;;;;6.97;5.45;;;;;;;13.66;100.00;100854.16;5056229;28;20051;-83
2023/05/13 00:49:20;;;;;;;8.23;5.55;;;;;;;13.72;100.00;100856.84;4985151;28;20054;-83
2023/05/13 00:51:49;;;;;;;5.45;4.53;;;;;;;13.73;100.00;100852.97;4974841;28;20073;-84
2023/05/13 00:54:17;;;;;;;6.40;5.22;;;;;;;13.73;100.00;100853.78;4942962;28;20058;-83
2023/05/13 00:56:45;;;;;;;6.65;4.95;;;;;;;13.75;100.00;100856.22;4975115;28;20499;-83
2023/05/13 00:59:15;;;;;;;5.72;5.13;;;;;;;13.72;100.00;100854.09;4974373;28;20054;-84
2023/05/13 01:01:50;;;;;;;6.47;5.13;;;;;;;13.83;100.00;100861.06;4958997;28;20042;-84
2023/05/13 01:04:46;;;;;;;7.00;5.05;;;;;;;13.98;100.00;100860.88;4974577;28;20046;-84
2023/05/13 01:07:45;;;;;;;7.43;5.85;;;;;;;13.90;100.00;100853.28;4990916;28;20050;-84
2023/05/13 01:10:25;;;;;;;7.28;5.40;;;;;;;13.86;100.00;100859.66;4990214;28;20058;-84
2023/05/13 01:12:59;;;;;;;6.13;5.53;;;;;;;13.76;100.00;100861.44;4990817;28;20054;-84
2023/05/13 01:15:29;;;;;;;6.75;5.75;;;;;;;13.74;100.00;100871.91;4974185;28;20061;-84
2023/05/13 01:18:08;;;;;;;8.60;5.85;;;;;;;13.74;100.00;100868.34;4974155;28;20057;-84
2023/05/13 01:20:41;;;;;;;8.38;5.72;;;;;;;13.70;100.00;100859.88;4974326;28;20058;-84
2023/05/13 01:23:11;;;;;;;6.43;5.28;;;;;;;13.69;100.00;100861.78;4974426;28;20046;-84
2023/05/13 01:25:40;;;;;;;6.57;5.45;;;;;;;13.62;100.00;100853.09;4974130;28;20050;-84
2023/05/13 01:28:08;;;;;;;6.65;5.75;;;;;;;13.51;100.00;100846.91;4990728;28;20051;-84
2023/05/13 01:30:39;;;;;;;9.25;5.10;;;;;;;13.43;100.00;100848.34;4974493;28;20049;-84
2023/05/13 01:33:09;;;;;;;6.70;5.20;;;;;;;13.46;100.00;100852.47;4958871;28;20054;-83
2023/05/13 01:35:38;;;;;;;8.10;5.90;;;;;;;13.54;100.00;100849.06;4987311;28;20069;-84
2023/05/13 01:38:09;;;;;;;7.88;5.60;;;;;;;13.43;100.00;100850.25;5058297;28;20408;-84
2023/05/13 01:40:38;;;;;;;8.00;5.80;;;;;;;13.52;100.00;100842.22;4990361;28;20054;-84
2023/05/13 01:43:07;;;;;;;8.77;6.05;;;;;;;13.51;100.00;100837.81;4973850;28;20096;-84
2023/05/13 01:45:36;;;;;;;7.82;6.05;;;;;;;13.36;100.00;100845.13;4958416;28;20049;-84
2023/05/13 01:48:05;;;;;;;8.85;6.20;;;;;;;13.21;100.00;100853.53;4957592;28;20128;-84
2023/05/13 01:50:51;;;;;;;8.95;5.43;;;;;;;13.19;100.00;100853.81;4961160;28;20050;-84
2023/05/13 01:53:19;;;;;;;8.88;6.00;;;;;;;13.11;100.00;100848.97;4974292;28;20500;-85
2023/05/13 01:55:51;;;;;;;7.97;6.45;;;;;;;13.07;100.00;100848.72;4973829;28;20047;-85
2023/05/13 01:58:21;;;;;;;11.20;6.50;;;;;;;13.03;100.00;100844.91;5043015;28;20058;-85
2023/05/13 02:00:49;;;;;;;9.13;6.57;;;;;;;13.00;100.00;100853.75;4989006;28;20480;-85
2023/05/13 02:03:18;;;;;;;8.93;6.28;;;;;;;12.89;100.00;100844.75;4974227;28;20062;-85
2023/05/13 02:05:47;;;;;;;6.78;6.07;;;;;;;12.85;100.00;100841.78;4974242;28;20057;-85
2023/05/13 02:08:26;;;;;;;6.97;5.95;;;;;;;12.84;100.00;100850.31;4970798;28;20082;-85
2023/05/13 02:11:00;;;;;;;9.18;6.90;;;;;;;12.82;100.00;100844.28;4970767;28;20065;-85
2023/05/13 02:13:29;;;;;;;9.27;6.53;;;;;;;12.85;100.00;100841.78;5055593;28;20050;-85
2023/05/13 02:15:58;;;;;;;8.80;7.63;;;;;;;12.86;100.00;100842.63;4970297;28;20055;-85
2023/05/13 02:18:30;;;;;;;8.85;7.18;;;;;;;12.86;100.00;100837.13;4989765;28;20062;-85
2023/05/13 02:21:00;;;;;;;8.43;6.38;;;;;;;12.89;100.00;100837.34;4973185;28;20050;-85
2023/05/13 02:23:44;;;;;;;11.10;7.38;;;;;;;12.78;100.00;100827.56;4975510;28;20409;-85
2023/05/13 02:26:14;;;;;;;10.45;7.75;;;;;;;12.73;100.00;100828.44;4958994;28;20061;-85
2023/05/13 02:28:56;;;;;;;8.13;6.68;;;;;;;12.63;100.00;100834.81;5045449;28;20043;-85
2023/05/13 02:31:27;;;;;;;11.60;7.05;;;;;;;12.58;100.00;100842.28;4973477;28;20050;-85
2023/05/13 02:34:09;;;;;;;7.63;6.07;;;;;;;12.54;100.00;100836.56;4984679;28;20055;-85
2023/05/13 02:36:38;;;;;;;8.20;5.93;;;;;;;12.50;100.00;100836.31;4986110;28;20046;-85
2023/05/13 02:39:12;;;;;;;8.77;6.20;;;;;;;12.51;100.00;100839.88;4985413;28;20389;-85
2023/05/13 02:41:57;;;;;;;8.25;5.57;;;;;;;12.42;100.00;100827.88;4983864;28;20047;-85
2023/05/13 02:44:28;;;;;;;5.20;4.47;;;;;;;12.42;100.00;100838.84;4987655;28;20054;-85
2023/05/13 02:46:57;;;;;;;5.82;4.53;;;;;;;12.41;100.00;100832.53;4972014;28;20077;-84
2023/05/13 02:49:28;;;;;;;5.82;3.88;;;;;;;12.45;100.00;100835.53;5073858;28;20069;-85
2023/05/13 02:52:11;;;;;;;6.38;3.63;;;;;;;12.39;100.00;100837.50;4973810;28;20058;-85
2023/05/13 02:54:40;;;;;;;3.42;3.10;;;;;;;12.35;100.00;100837.25;4957062;28;20045;-85
2023/05/13 02:57:08;;;;;;;6.15;2.53;;;;;;;12.28;100.00;100834.03;4972818;28;20042;-85
2023/05/13 02:59:37;;;;;;;2.80;2.50;;;;;;;12.25;100.00;100834.56;4973048;28;20047;-85
2023/05/13 03:02:10;;;;;;;2.38;2.17;;;;;;;12.20;100.00;100835.44;4957827;28;20047;-84
2023/05/13 03:04:40;;;;;;;2.40;2.20;;;;;;;12.21;100.00;100830.75;4972571;28;20053;-84
2023/05/13 03:07:08;;;;;;;3.67;2.10;;;;;;;12.26;100.00;100841.69;4989276;28;20055;-85
2023/05/13 03:09:40;;;;;;;2.08;1.88;;;;;;;12.19;100.00;100836.53;4973016;28;20066;-84
2023/05/13 03:12:09;;;;;;;3.08;2.03;;;;;;;12.26;100.00;100836.22;4985752;28;20129;-84
2023/05/13 03:14:38;;;;;;;3.13;2.45;;;;;;;12.40;100.00;100841.03;4971248;28;20061;-84
2023/05/13 03:17:07;;;;;;;2.30;2.10;;;;;;;12.43;100.00;100841.31;4985514;28;20424;-85
2023/05/13 03:19:36;;;;;;;1.90;1.80;;;;;;;12.35;100.00;100840.00;4987711;28;20054;-84
2023/05/13 03:22:05;;;;;;;3.17;2.45;;;;;;;12.25;100.00;100836.50;4985455;28;20055;-85
2023/05/13 03:24:34;;;;;;;2.38;2.17;;;;;;;12.20;100.00;100837.34;4987479;28;20055;-86
2023/05/13 03:27:04;;;;;;;2.20;2.00;;;;;;;12.14;100.00;100833.00;4972691;28;20065;-85
2023/05/13 03:29:34;;;;;;;2.30;2.10;;;;;;;12.22;100.00;100848.88;4972077;28;20392;-86
2023/05/13 03:32:05;;;;;;;4.13;2.45;;;;;;;12.17;100.00;100835.19;4972366;28;20058;-85
2023/05/13 03:34:35;;;;;;;1.70;1.60;;;;;;;12.17;100.00;100837.94;4985106;28;20058;-86
2023/05/13 03:37:04;;;;;;;5.22;2.20;;;;;;;12.04;100.00;100851.19;4969266;28;20051;-85
2023/05/13 03:39:35;;;;;;;3.35;2.60;;;;;;;12.02;100.00;100853.34;5055051;28;20054;-85
2023/05/13 03:42:03;;;;;;;4.38;2.33;;;;;;;11.98;100.00;100844.06;4972555;28;20050;-85
2023/05/13 03:44:32;;;;;;;3.65;2.65;;;;;;;11.98;100.00;100855.03;4956795;28;20500;-85
2023/05/13 03:47:00;;;;;;;3.90;3.08;;;;;;;11.95;100.00;100852.84;5056846;28;20046;-85
2023/05/13 03:49:29;;;;;;;4.53;3.60;;;;;;;11.94;100.00;100851.19;4968790;28;20059;-84
2023/05/13 03:51:57;;;;;;;4.05;3.35;;;;;;;11.93;100.00;100855.03;4938947;28;20512;-84
2023/05/13 03:54:26;;;;;;;4.78;3.50;;;;;;;11.92;100.00;100862.44;4956512;28;20054;-84
2023/05/13 03:56:54;;;;;;;4.25;3.20;;;;;;;11.95;100.00;100852.84;4972493;28;20504;-84
2023/05/13 03:59:23;;;;;;;4.45;2.92;;;;;;;11.96;100.00;100865.44;4972188;28;20051;-86
2023/05/13 04:01:51;;;;;;;4.40;3.75;;;;;;;11.99;100.00;100867.63;4972269;28;20054;-85
2023/05/13 04:04:19;;;;;;;4.88;4.10;;;;;;;12.02;100.00;100869.78;4972131;28;20054;-85
2023/05/13 04:06:47;;;;;;;8.30;4.35;;;;;;;12.00;100.00;100874.75;4971299;28;20055;-85
2023/05/13 04:09:15;;;;;;;5.57;4.47;;;;;;;11.96;100.00;100868.19;4991730;28;20050;-86
2023/05/13 04:11:44;;;;;;;4.13;3.72;;;;;;;11.96;100.00;100868.19;4975348;28;20070;-85
2023/05/13 04:14:12;;;;;;;3.83;3.45;;;;;;;12.02;100.00;100877.22;4975335;28;20042;-81
2023/05/13 04:16:43;;;;;;;6.32;4.43;;;;;;;11.99;100.00;100873.13;4975680;28;20061;-81
2023/05/13 04:19:11;;;;;;;7.10;4.13;;;;;;;12.05;100.00;100873.94;4975130;28;20061;-82
2023/05/13 04:21:39;;;;;;;4.88;4.07;;;;;;;12.04;100.00;100884.09;4975600;28;20047;-81
2023/05/13 04:24:07;;;;;;;6.88;5.00;;;;;;;12.12;100.00;100887.34;4991353;28;20435;-81
2023/05/13 04:26:37;;;;;;;5.70;4.80;;;;;;;11.98;100.00;100889.84;4975580;28;20054;-81
2023/05/13 04:29:05;;;;;;;5.95;4.97;;;;;;;11.96;100.00;100879.16;5059167;28;20051;-82
2023/05/13 04:31:33;;;;;;;4.82;4.22;;;;;;;11.89;100.00;100890.44;4991304;28;20050;-83
2023/05/13 04:34:01;;;;;;;6.10;4.22;;;;;;;11.95;100.00;100907.69;4991345;28;20047;-83
2023/05/13 04:36:30;;;;;;;4.20;3.70;;;;;;;11.83;100.00;100900.59;4959548;28;20047;-83
2023/05/13 04:38:58;;;;;;;5.03;3.92;;;;;;;11.93;100.00;100912.66;4959162;28;20050;-83
2023/05/13 04:41:27;;;;;;;4.18;3.78;;;;;;;11.92;100.00;100913.72;4991127;28;20412;-82
2023/05/13 04:43:55;;;;;;;3.75;3.35;;;;;;;11.93;100.00;100907.97;4975518;28;20112;-83
2023/05/13 04:46:24;;;;;;;3.85;3.25;;;;;;;12.02;100.00;100921.91;4959149;28;20055;-82
2023/05/13 04:48:53;;;;;;;4.80;3.40;;;;;;;12.07;100.00;100912.84;4991453;28;20042;-82
2023/05/13 04:51:24;;;;;;;4.55;4.15;;;;;;;12.24;100.00;100926.22;4974958;28;20408;-82
2023/05/13 04:53:53;;;;;;;6.15;3.42;;;;;;;12.41;100.00;100923.09;4975014;28;20065;-83
2023/05/13 04:56:21;;;;;;;4.60;3.50;;;;;;;12.36;100.00;100929.44;4991081;28;20051;-82
2023/05/13 04:58:50;;;;;;;4.63;4.03;;;;;;;12.32;100.00;100933.84;4975103;28;20058;-82
2023/05/13 05:01:19;;;;;;;6.10;3.28;;;;;;;12.32;100.00;100933.84;4990782;28;20055;-83
2023/05/13 05:03:49;;;;;;;3.35;2.97;;;;;;;12.33;100.00;100940.19;4974913;28;20418;-83
2023/05/13 05:06:17;;;;;;;3.22;2.78;;;;;;;12.40;100.00;100948.91;4990756;28;20050;-82
2023/05/13 05:08:46;;;;;;;3.22;2.92;;;;;;;12.54;100.00;100946.38;4973978;28;20061;-83
2023/05/13 05:11:14;;;;;;;3.15;2.78;;;;;;;12.71;100.00;100958.91;4974730;28;20050;-83
2023/05/13 05:13:42;;;;;;;3.42;3.13;;;;;;;12.75;100.00;100954.44;4974558;28;20092;-82
2023/05/13 05:16:10;;;;;;;5.60;3.58;;;;;;;12.87;100.00;100960.41;4974759;28;20417;-85
2023/05/13 05:18:40;;;;;;;3.30;3.00;;;;;;;13.14;100.00;100972.84;4973801;28;20061;-83
2023/05/13 05:21:11;;;;;;;3.38;3.08;;;;;;;13.09;100.00;100961.88;4974842;28;20496;-83
2023/05/13 05:23:40;;;;;;;3.28;2.97;;;;;;;13.47;100.00;100960.47;4991043;28;20055;-82
2023/05/13 05:26:08;;;;;;;3.45;3.15;;;;;;;13.73;100.00;100962.97;4959016;28;20497;-82
2023/05/13 05:28:42;;;;;;;3.72;2.97;;;;;;;13.58;100.00;100967.50;4974635;28;20046;-82
2023/05/13 05:31:11;;;;;;;4.28;2.60;;;;;;;13.75;100.00;100971.75;4958137;28;20054;-82
2023/05/13 05:33:40;;;;;;;3.05;2.75;;;;;;;13.84;100.00;100972.75;4986767;28;20046;-82
2023/05/13 05:36:09;;;;;;;2.55;2.35;;;;;;;13.67;100.00;100968.53;4971050;28;20055;-81
2023/05/13 05:38:37;;;;;;;4.13;2.58;;;;;;;13.82;100.00;100983.22;5071568;28;20054;-81
2023/05/13 05:41:06;;;;;;;2.83;2.38;;;;;;;13.85;100.00;100977.16;5055514;28;20058;-81
2023/05/13 05:43:35;;;;;;;2.88;2.58;;;;;;;13.96;100.00;100983.34;5039271;28;20054;-81
2023/05/13 05:46:03;;;;;;;2.28;2.17;;;;;;;14.12;100.00;100989.47;4970842;28;20442;-81
2023/05/13 05:48:32;;;;;;;4.30;2.70;;;;;;;14.13;100.00;100995.81;4971115;28;20055;-81
2023/05/13 05:51:02;;;;;;;4.03;2.55;;;;;;;14.26;100.00;100992.34;5039374;28;20058;-81
2023/05/13 05:53:36;;;;;;;2.97;2.67;;;;;;;14.41;100.00;100994.06;4970607;28;20050;-81
2023/05/13 05:56:06;;;;;;;3.00;2.75;;;;;;;14.37;100.00;100990.25;5039645;28;20051;-80
2023/05/13 05:58:35;;;;;;;5.22;2.58;;;;;;;14.44;100.00;101001.75;4971008;28;20055;-80
2023/05/13 06:01:05;;;;;;;3.38;3.08;;;;;;;14.51;100.00;100999.44;4970703;28;20055;-81
2023/05/13 06:03:34;;;;;;;6.72;2.92;;;;;;;14.70;100.00;101000.56;5038167;28;20441;-80
2023/05/13 06:06:02;;;;;;;3.72;3.13;;;;;;;14.90;100.00;100999.47;4970027;28;20046;-80
2023/05/13 06:08:31;;;;;;;4.25;2.80;;;;;;;14.88;100.00;100999.78;4955175;28;20069;-82
2023/05/13 06:10:59;;;;;;;2.55;2.35;;;;;;;15.21;100.00;101007.25;5050770;28;20077;-88
2023/05/13 06:13:27;;;;;;;3.13;2.55;;;;;;;15.40;100.00;101007.19;5075961;28;20050;-88
2023/05/13 06:15:55;;;;;;;3.15;2.63;;;;;;;15.28;100.00;101007.69;4983439;28;20057;-88
2023/05/13 06:18:24;;;;;;;3.05;2.30;;;;;;;15.35;100.00;101012.00;4987837;28;20054;-82
2023/05/13 06:20:53;;;;;;;2.47;2.30;;;;;;;15.37;100.00;101013.34;5000568;28;20062;-86
2023/05/13 06:23:21;;;;;;;2.78;2.58;;;;;;;15.44;99.99;101013.75;5001809;28;20049;-86
2023/05/13 06:25:51;;;;;;;2.58;2.30;;;;;;;15.41;99.18;101013.53;4970354;28;20057;-86
2023/05/13 06:28:19;;;;;;;5.00;2.80;;;;;;;15.40;100.00;101009.97;4982340;28;20500;-84
2023/05/13 06:30:50;;;;;;;4.22;2.50;;;;;;;15.43;100.00;101005.78;4978929;28;20042;-84
2023/05/13 06:33:18;;;;;;;3.25;2.67;;;;;;;15.53;100.00;101010.28;4980861;28;20050;-85
2023/05/13 06:35:48;;;;;;;3.17;2.85;;;;;;;15.59;100.00;101009.91;4975672;28;20057;-85
2023/05/13 06:38:18;;;;;;;6.35;3.10;;;;;;;15.55;100.00;101008.06;5004338;28;20408;-85
2023/05/13 06:40:47;;;;;;;3.30;2.75;;;;;;;15.61;100.00;101008.78;4987469;28;20058;-84
2023/05/13 06:43:16;;;;;;;2.65;2.45;;;;;;;15.72;100.00;101007.47;4981848;28;20054;-85
2023/05/13 06:45:52;;;;;;;3.67;2.85;;;;;;;15.88;99.14;101009.97;4985861;28;20043;-86
2023/05/13 06:48:20;;;;;;;5.78;3.08;;;;;;;15.75;100.00;101006.88;5073688;28;20058;-86
2023/05/13 06:50:48;;;;;;;3.95;3.40;;;;;;;15.85;99.73;101011.38;4987976;28;20050;-85
2023/05/13 06:53:16;;;;;;;3.95;3.58;;;;;;;16.02;99.85;101004.47;4988430;28;20047;-87
2023/05/13 06:55:44;;;;;;;3.72;3.05;;;;;;;16.17;99.02;101008.88;4984497;28;20047;-88
2023/05/13 06:58:12;;;;;;;2.88;2.67;;;;;;;16.03;100.00;101006.09;4972720;28;20042;-87
2023/05/13 07:00:40;;;;;;;3.80;3.10;;;;;;;16.05;98.70;101021.25;5017349;28;20538;-88
2023/05/13 07:03:08;;;;;;;4.78;2.90;;;;;;;16.06;98.93;101014.59;4984189;28;20073;-88
2023/05/13 07:05:36;;;;;;;3.30;3.00;;;;;;;16.06;97.88;101011.84;4990282;28;20054;-86
2023/05/13 07:08:07;;;;;;;2.63;2.40;;;;;;;16.22;97.68;101008.75;4987413;28;20057;-86
2023/05/13 07:10:35;;;;;;;3.88;2.70;;;;;;;16.14;97.69;101006.72;4978817;28;20531;-85
2023/05/13 07:13:03;;;;;;;2.42;2.22;;;;;;;15.93;97.78;101015.41;4985125;28;20054;-85
2023/05/13 07:15:31;;;;;;;2.78;2.47;;;;;;;15.96;97.77;101006.50;4972944;28;20066;-85
2023/05/13 07:18:00;;;;;;;3.38;2.75;;;;;;;16.12;97.87;101010.59;4984713;28;20050;-85
2023/05/13 07:20:28;;;;;;;5.22;2.30;;;;;;;16.19;95.63;100998.31;4989329;28;20493;-86
2023/05/13 07:22:56;;;;;;;2.80;2.50;;;;;;;16.33;96.03;101004.63;4985477;28;20045;-86
2023/05/13 07:25:23;;;;;;;3.00;2.67;;;;;;;16.29;96.69;101008.34;4989226;28;20046;-85
2023/05/13 07:27:51;;;;;;;3.35;2.47;;;;;;;16.35;97.05;101007.09;4988643;28;20401;-85
2023/05/13 07:30:19;;;;;;;3.05;2.72;;;;;;;16.39;98.05;101008.94;4986893;28;20046;-86
2023/05/13 07:32:48;;;;;;;2.15;2.03;;;;;;;16.36;95.85;101009.56;4983036;28;20050;-85
2023/05/13 07:35:17;;;;;;;4.38;2.33;;;;;;;16.50;96.71;101015.06;4974076;28;20055;-85
2023/05/13 07:37:46;;;;;;;2.80;2.03;;;;;;;16.71;93.76;101024.84;4979934;28;20046;-84
2023/05/13 07:40:14;;;;;;;3.00;2.65;;;;;;;16.54;91.98;101018.03;4975559;28;20047;-83
2023/05/13 07:42:42;;;;;;;2.80;1.90;;;;;;;16.47;93.01;101020.41;4960277;28;20431;-83
2023/05/13 07:45:10;;;;;;;2.13;1.88;;;;;;;16.67;91.84;101019.09;4969456;28;20046;-83
2023/05/13 07:47:38;;;;;;;2.25;2.00;;;;;;;16.85;92.36;101013.72;4965625;28;20073;-83
2023/05/13 07:50:11;;;;;;;2.13;2.00;;;;;;;16.80;90.97;101011.91;4964076;28;20049;-83
2023/05/13 07:52:39;;;;;;;2.17;1.98;;;;;;;16.99;92.67;101014.50;4973265;28;20408;-83
2023/05/13 07:55:09;;;;;;;4.07;2.15;;;;;;;16.93;88.49;101013.81;4971689;28;20057;-83
2023/05/13 07:57:38;;;;;;;2.25;2.05;;;;;;;17.08;89.46;101006.31;4987909;28;20050;-82
2023/05/13 08:00:06;;;;;;;2.88;2.03;;;;;;;16.88;89.97;101005.66;4972007;28;20512;-83
2023/05/13 08:02:41;;;;;;;3.17;2.33;;;;;;;17.18;91.18;101014.38;4971444;28;20493;-83
2023/05/13 08:05:10;;;;;;;2.58;2.30;;;;;;;17.26;91.72;101011.97;4987967;28;20058;-83
2023/05/13 08:07:38;;;;;;;3.70;2.20;;;;;;;17.06;88.04;101016.88;4984441;28;20058;-83
2023/05/13 08:10:06;;;;;;;2.58;2.20;;;;;;;17.28;90.56;101009.69;5036179;28;20051;-84
2023/05/13 08:12:35;;;;;;;2.42;2.22;;;;;;;17.41;87.83;101005.22;5045999;28;20061;-83
2023/05/13 08:15:03;;;;;;;2.50;1.90;;;;;;;17.29;89.44;101017.69;4971136;28;20046;-83
2023/05/13 08:17:33;;;;;;;2.55;1.55;;;;;;;17.45;86.89;101009.81;4971146;28;20046;-84
2023/05/13 08:20:01;;;;;;;1.85;1.75;;;;;;;17.62;84.11;101008.28;4955687;28;20417;-84
2023/05/13 08:22:30;;;;;;;1.95;1.80;;;;;;;17.76;83.41;101010.97;4968237;28;20433;-84
2023/05/13 08:24:59;;;;;;;3.15;1.70;;;;;;;17.64;84.65;101011.53;5036806;28;20058;-83
2023/05/13 08:27:28;;;;;;;2.50;2.00;;;;;;;17.60;85.02;101005.81;5036281;28;20062;-83
2023/05/13 08:29:56;;;;;;;2.75;1.88;;;;;;;17.55;85.33;101007.94;5069195;28;20059;-85
2023/05/13 08:32:24;;;;;;;2.30;2.10;;;;;;;17.71;84.72;101006.34;4976097;28;20073;-85
2023/05/13 08:34:52;;;;;;;2.55;2.35;;;;;;;17.83;84.71;101011.31;4988105;28;20050;-86
2023/05/13 08:37:21;;;;;;;3.15;2.58;;;;;;;17.62;84.37;101004.69;4987699;28;20050;-85
2023/05/13 08:39:49;;;;;;;4.47;2.65;;;;;;;17.75;84.83;101002.97;4985615;28;20069;-85
2023/05/13 08:42:20;;;;;;;3.60;2.25;;;;;;;17.77;85.06;101003.44;5080965;28;20051;-85
2023/05/13 08:44:50;;;;;;;2.40;1.80;;;;;;;17.56;84.88;101009.56;4967244;28;20631;-86
2023/05/13 08:47:38;;;;;;;1.83;1.70;;;;;;;17.55;85.10;100999.63;5068239;28;20409;-85
2023/05/13 08:50:06;;;;;;;2.17;1.98;;;;;;;17.72;85.09;100993.34;5034306;28;20512;-85
2023/05/13 08:52:34;;;;;;;4.43;1.95;;;;;;;17.56;84.09;100990.97;4968355;28;20528;-85
2023/05/13 08:55:04;;;;;;;2.00;1.90;;;;;;;17.46;85.43;100983.78;4971313;28;20062;-86
2023/05/13 08:57:32;;;;;;;2.00;1.90;;;;;;;17.68;85.47;100984.88;5039117;28;20506;-86
2023/05/13 09:00:00;;;;;;;2.05;1.70;;;;;;;17.83;82.12;100985.56;4971879;28;20054;-86
2023/05/13 09:02:29;;;;;;;6.50;1.88;;;;;;;17.71;83.54;100983.41;4970753;28;20413;-86
2023/05/13 09:05:02;;;;;;;1.45;1.35;;;;;;;17.66;83.32;100987.16;4971629;28;20051;-86
2023/05/13 09:07:30;;;;;;;1.60;1.43;;;;;;;17.85;83.41;100986.09;5039060;28;20397;-86
2023/05/13 09:09:58;;;;;;;2.80;1.33;;;;;;;18.02;81.38;100987.28;5073312;28;20067;-86
2023/05/13 09:12:52;;;;;;;4.18;1.50;;;;;;;17.89;83.97;100989.81;4971481;28;20061;-87
2023/05/13 09:15:24;;;;;;;1.65;1.00;;;;;;;17.99;82.73;100995.06;5072178;28;20051;-88
2023/05/13 09:17:57;;;;;;;2.45;1.35;;;;;;;18.18;81.48;100977.41;5071827;28;20405;-87
2023/05/13 09:20:26;;;;;;;2.25;1.42;;;;;;;18.23;77.43;100976.47;4980500;28;20497;-85
2023/05/13 09:23:02;;;;;;;2.15;1.17;;;;;;;18.16;77.89;100982.47;4997372;28;20050;-85
2023/05/13 09:25:31;;;;;;;3.22;1.42;;;;;;;18.57;80.18;100987.91;4994219;28;20055;-85
2023/05/13 09:28:01;;;;;;;3.22;0.95;;;;;;;18.70;74.98;100983.34;5047769;28;20050;-85
2023/05/13 09:30:33;;;;;;;2.05;1.15;;;;;;;18.88;74.23;100984.16;4971720;28;20057;-87
2023/05/13 09:33:13;;;;;;;0.98;0.98;;;;;;;19.04;75.49;100987.28;5044033;28;20058;-86
2023/05/13 09:35:43;;;;;;;3.85;1.05;;;;;;;19.10;74.70;100979.63;4987353;28;20654;-86
2023/05/13 09:38:14;;;;;;;2.42;1.27;;;;;;;19.23;73.18;100984.16;4986510;28;20057;-88
2023/05/13 09:40:56;;;;;;;2.83;1.35;;;;;;;19.16;73.27;100978.28;4986255;28;20572;-88
2023/05/13 09:43:26;;;;;;;2.63;1.30;;;;;;;18.91;74.50;100976.00;4971721;28;20497;-85
2023/05/13 09:46:04;;;;;;;1.63;0.90;;;;;;;19.27;70.49;100985.13;5049647;28;20043;-87
2023/05/13 09:48:33;;;;;;;1.73;1.13;;;;;;;19.41;70.48;100981.34;5043464;28;20129;-86
2023/05/13 09:51:02;;;;;;;2.63;1.33;;;;;;;19.01;68.46;100980.38;4984185;28;20047;-85
2023/05/13 09:53:31;;;;;;;1.20;1.10;;;;;;;19.24;71.91;100980.22;4986333;28;20055;-86
2023/05/13 09:56:00;;;;;;;5.25;1.48;;;;;;;19.36;71.75;100973.19;4970443;28;20051;-85
2023/05/13 09:58:29;;;;;;;2.72;1.40;;;;;;;19.56;70.70;100969.69;5088097;28;20055;-87
2023/05/13 10:00:58;;;;;;;1.55;1.40;;;;;;;19.91;74.68;100976.25;5063103;28;20054;-86
2023/05/13 10:03:28;;;;;;;1.80;1.50;;;;;;;20.31;70.39;100984.22;4991445;28;20046;-85
2023/05/13 10:05:57;;;;;;;2.15;1.08;;;;;;;20.24;63.01;100970.84;4990999;28;20065;-85
2023/05/13 10:08:29;;;;;;;4.03;1.02;;;;;;;20.28;68.16;100971.00;4990632;28;20058;-86
2023/05/13 10:10:58;;;;;;;3.38;1.63;;;;;;;20.26;69.01;100974.13;4990228;28;20042;-85
2023/05/13 10:13:30;;;;;;;1.83;1.25;;;;;;;20.07;71.25;100976.50;4985235;28;20050;-88
2023/05/13 10:15:58;;;;;;;1.25;1.10;;;;;;;20.08;69.84;100972.59;4991352;28;20038;-84
2023/05/13 10:18:27;;;;;;;1.40;1.00;;;;;;;19.54;69.90;100963.66;4983930;28;20050;-86
2023/05/13 10:20:56;;;;;;;3.75;1.40;;;;;;;19.51;71.31;100964.34;5079004;28;20053;-86
2023/05/13 10:23:25;;;;;;;2.00;1.25;;;;;;;19.70;68.90;100963.13;5018235;28;20409;-86
2023/05/13 10:25:56;;;;;;;1.48;1.33;;;;;;;19.65;68.38;100966.06;4981265;28;20054;-85
2023/05/13 10:28:25;;;;;;;2.22;1.17;;;;;;;19.66;69.82;100962.16;4989640;28;20050;-86
2023/05/13 10:30:53;;;;;;;1.27;1.17;;;;;;;20.14;70.31;100966.50;4989591;28;20047;-86
2023/05/13 10:33:21;;;;;;;2.03;1.50;;;;;;;20.54;65.79;100958.88;4980366;28;20447;-86
2023/05/13 10:36:31;;;;;;;1.67;1.20;;;;;;;20.76;63.38;100956.88;4989400;28;20058;-85
2023/05/13 10:39:30;;;;;;;1.73;1.08;;;;;;;20.72;65.18;100962.31;4988030;28;20058;-86
2023/05/13 10:42:37;;;;;;;1.65;1.00;;;;;;;20.62;65.34;100941.31;4989762;28;20038;-84
2023/05/13 10:45:06;;;;;;;1.35;1.17;;;;;;;21.06;62.87;100940.09;4989297;28;20054;-83
2023/05/13 10:47:35;;;;;;;2.15;1.15;;;;;;;21.12;64.94;100946.28;4983266;28;20046;-85
2023/05/13 10:50:24;;;;;;;1.33;1.10;;;;;;;20.22;62.18;100950.09;4977353;28;20057;-83
2023/05/13 10:52:57;;;;;;;2.10;1.23;;;;;;;20.33;66.27;100937.44;4987902;28;20081;-85
2023/05/13 10:55:26;;;;;;;3.95;1.52;;;;;;;20.36;64.35;100930.41;4990481;28;20050;-84
2023/05/13 10:58:10;;;;;;;2.05;1.17;;;;;;;20.51;64.15;100928.97;4981139;28;20047;-84
2023/05/13 11:00:43;;;;;;;4.20;1.13;;;;;;;20.53;63.26;100921.13;4979841;28;20051;-83
2023/05/13 11:03:25;;;;;;;1.33;1.20;;;;;;;20.77;64.83;100923.19;4980616;28;20042;-86
2023/05/13 11:06:03;;;;;;;;;;;;;;;20.67;65.58;100921.63;4975901;28;20404;-83
2023/05/13 11:08:37;;;;;;;3.50;1.30;;;;;;;20.66;63.17;100928.38;4990043;28;19922;-82
2023/05/13 11:11:21;;;;;;;1.20;1.10;;;;;;;20.25;61.74;100928.00;4983365;28;20791;-89
2023/05/13 11:14:18;;;;;;;1.33;1.10;;;;;;;20.52;63.56;100909.19;5059217;28;20095;-88
2023/05/13 11:16:56;;;;;;;1.60;1.40;;;;;;;20.15;64.17;100920.09;4959607;28;20057;-87
2023/05/13 11:19:44;;;;;;;3.08;1.40;;;;;;;20.12;60.86;100929.09;4986863;28;20049;-87
2023/05/13 11:22:15;;;;;;;1.25;1.05;;;;;;;20.58;63.61;100925.66;4973394;28;20512;-88
2023/05/13 11:25:04;;;;;;;1.55;1.45;;;;;;;20.23;60.37;100918.41;5010650;28;20413;-87
2023/05/13 11:27:37;;;;;;;1.52;1.10;;;;;;;20.30;62.43;100913.13;4987498;28;20051;-87
2023/05/13 11:30:20;;;;;;;1.75;1.08;;;;;;;20.57;58.93;100908.16;5102019;28;20034;-90
2023/05/13 11:32:56;;;;;;;1.67;1.00;;;;;;;20.73;61.08;100907.53;5036686;28;20518;-89
2023/05/13 11:35:32;;;;;;;0.73;0.73;;;;;;;20.81;55.04;100898.28;4973991;28;20044;-89
2023/05/13 11:38:02;;;;;;;2.67;0.90;;;;;;;20.95;57.26;100898.00;4973155;28;20049;-89
2023/05/13 11:40:35;;;;;;;1.10;1.00;;;;;;;21.25;60.53;100897.84;4987779;28;20051;-88